createdAt,value
2023-05-25T00:00:04.576Z,0.00
2023-05-25T00:01:04.577Z,0.00
2023-05-25T00:02:04.623Z,0.00
2023-05-25T00:03:04.672Z,0.00
2023-05-25T00:04:04.877Z,0.00
2023-05-25T00:05:04.547Z,0.00
2023-05-25T00:06:04.504Z,0.00
2023-05-25T00:07:04.507Z,0.00
2023-05-25T00:08:04.506Z,0.00
2023-05-25T00:09:04.460Z,0.00
2023-05-25T00:10:04.486Z,0.00
2023-05-25T00:11:04.444Z,0.00
2023-05-25T00:12:04.434Z,0.00
2023-05-25T00:13:04.439Z,0.00
2023-05-25T00:14:04.438Z,0.00
2023-05-25T00:15:04.401Z,0.00
2023-05-25T00:16:04.411Z,0.00
2023-05-25T00:17:04.602Z,0.00
2023-05-25T00:18:04.432Z,0.00
2023-05-25T00:19:04.354Z,0.00
2023-05-25T00:20:04.418Z,0.00
2023-05-25T00:21:04.338Z,0.00
2023-05-25T00:22:04.343Z,0.00
2023-05-25T00:23:04.349Z,0.00
2023-05-25T00:24:04.328Z,0.00
2023-05-25T00:25:04.285Z,0.00
2023-05-25T00:26:04.292Z,0.00
2023-05-25T00:27:04.275Z,0.00
2023-05-25T00:28:04.260Z,0.00
2023-05-25T00:29:04.333Z,0.00
2023-05-25T00:30:04.262Z,0.00
2023-05-25T00:31:04.262Z,0.00
2023-05-25T00:32:04.226Z,0.00
2023-05-25T00:33:04.255Z,0.00
2023-05-25T00:34:04.202Z,0.00
2023-05-25T00:35:04.183Z,0.00
2023-05-25T00:36:04.183Z,0.00
2023-05-25T00:37:04.177Z,0.00
2023-05-25T00:38:04.156Z,0.00
2023-05-25T00:39:04.266Z,0.00
2023-05-25T00:40:04.136Z,0.00
2023-05-25T00:41:04.128Z,0.00
2023-05-25T00:42:04.122Z,0.00
2023-05-25T00:43:04.124Z,0.00
2023-05-25T00:44:04.101Z,0.00
2023-05-25T00:45:04.080Z,0.00
2023-05-25T00:46:04.100Z,0.00
2023-05-25T00:47:04.119Z,0.00
2023-05-25T00:48:04.126Z,0.00
2023-05-25T00:49:04.042Z,0.00
2023-05-25T00:50:04.034Z,0.00
2023-05-25T00:51:04.009Z,0.00
2023-05-25T00:52:04.015Z,0.00
2023-05-25T00:53:04.040Z,0.00
2023-05-25T00:54:03.987Z,0.00
2023-05-25T00:55:04.002Z,0.00
2023-05-25T00:56:03.969Z,0.00
2023-05-25T00:57:03.961Z,0.00
2023-05-25T00:58:03.937Z,0.00
2023-05-25T00:59:03.968Z,0.00
2023-05-25T01:00:03.920Z,0.00
2023-05-25T01:01:03.917Z,0.00
2023-05-25T01:02:03.987Z,0.00
2023-05-25T01:03:03.938Z,0.00
2023-05-25T01:04:04.033Z,0.00
2023-05-25T01:05:03.892Z,0.00
2023-05-25T01:06:03.859Z,0.00
2023-05-25T01:07:03.851Z,0.00
2023-05-25T01:08:03.858Z,0.00
2023-05-25T01:09:03.840Z,0.00
2023-05-25T01:10:03.826Z,0.00
2023-05-25T01:11:03.847Z,0.00
2023-05-25T01:12:03.809Z,0.00
2023-05-25T01:13:03.784Z,0.00
2023-05-25T01:14:03.771Z,0.00
2023-05-25T01:15:03.763Z,0.00
2023-05-25T01:16:03.764Z,0.00
2023-05-25T01:17:03.727Z,0.00
2023-05-25T01:18:03.758Z,0.00
2023-05-25T01:19:03.712Z,0.00
2023-05-25T01:20:10.609Z,0.00
2023-05-25T01:21:04.694Z,0.00
2023-05-25T01:22:03.698Z,0.00
2023-05-25T01:23:03.678Z,0.00
2023-05-25T01:24:03.692Z,0.00
2023-05-25T01:25:03.671Z,0.00
2023-05-25T01:26:03.651Z,0.00
2023-05-25T01:27:03.707Z,0.00
2023-05-25T01:28:03.615Z,0.00
2023-05-25T01:29:03.622Z,0.00
2023-05-25T01:30:03.606Z,0.00
2023-05-25T01:31:03.582Z,0.00
2023-05-25T01:32:03.680Z,0.00
2023-05-25T01:33:03.622Z,0.00
2023-05-25T01:34:03.553Z,0.00
2023-05-25T01:35:03.547Z,0.00
2023-05-25T01:36:03.520Z,0.00
2023-05-25T01:37:03.517Z,0.00
2023-05-25T01:38:03.531Z,0.00
2023-05-25T01:39:03.495Z,0.00
2023-05-25T01:40:03.501Z,0.00
2023-05-25T01:41:03.468Z,0.00
2023-05-25T01:42:03.449Z,0.00
2023-05-25T01:43:03.480Z,0.00
2023-05-25T01:44:03.456Z,0.00
2023-05-25T01:45:03.436Z,0.00
2023-05-25T01:46:03.486Z,0.00
2023-05-25T01:47:03.394Z,0.00
2023-05-25T01:48:03.441Z,0.00
2023-05-25T01:49:03.410Z,0.00
2023-05-25T01:50:03.375Z,0.00
2023-05-25T01:51:03.375Z,0.00
2023-05-25T01:52:03.353Z,0.00
2023-05-25T01:53:03.342Z,0.00
2023-05-25T01:54:03.334Z,0.00
2023-05-25T01:55:03.326Z,0.00
2023-05-25T01:56:03.318Z,0.00
2023-05-25T01:57:03.297Z,0.00
2023-05-25T01:58:03.306Z,0.00
2023-05-25T01:59:03.371Z,0.00
2023-05-25T02:00:03.298Z,0.00
2023-05-25T02:01:03.287Z,0.00
2023-05-25T02:02:03.263Z,0.00
2023-05-25T02:03:03.292Z,0.00
2023-05-25T02:04:03.289Z,0.00
2023-05-25T02:05:03.231Z,0.00
2023-05-25T02:06:03.202Z,0.00
2023-05-25T02:07:03.194Z,0.00
2023-05-25T02:08:03.159Z,0.00
2023-05-25T02:09:03.177Z,0.00
2023-05-25T02:10:03.190Z,0.00
2023-05-25T02:11:03.146Z,0.00
2023-05-25T02:12:03.122Z,0.00
2023-05-25T02:13:03.110Z,0.00
2023-05-25T02:14:03.116Z,0.00
2023-05-25T02:15:03.138Z,0.00
2023-05-25T02:16:03.105Z,0.00
2023-05-25T02:17:03.081Z,0.00
2023-05-25T02:18:03.160Z,0.00
2023-05-25T02:19:03.050Z,0.00
2023-05-25T02:20:03.053Z,0.00
2023-05-25T02:21:03.038Z,0.00
2023-05-25T02:22:03.019Z,0.00
2023-05-25T02:23:03.006Z,0.00
2023-05-25T02:24:03.007Z,0.00
2023-05-25T02:25:02.996Z,0.00
2023-05-25T02:26:02.996Z,0.00
2023-05-25T02:27:02.978Z,0.00
2023-05-25T02:28:02.955Z,0.00
2023-05-25T02:29:02.962Z,0.00
2023-05-25T02:30:02.957Z,0.00
2023-05-25T02:31:03.022Z,0.00
2023-05-25T02:32:02.913Z,0.00
2023-05-25T02:33:02.938Z,0.00
2023-05-25T02:34:02.931Z,0.00
2023-05-25T02:35:02.920Z,0.00
2023-05-25T02:36:02.871Z,0.00
2023-05-25T02:37:02.877Z,0.00
2023-05-25T02:38:02.845Z,0.00
2023-05-25T02:39:02.847Z,0.00
2023-05-25T02:40:02.862Z,0.00
2023-05-25T02:41:02.821Z,0.00
2023-05-25T02:42:02.804Z,0.00
2023-05-25T02:43:02.802Z,0.00
2023-05-25T02:44:02.807Z,0.00
2023-05-25T02:45:02.826Z,0.00
2023-05-25T02:46:02.779Z,0.00
2023-05-25T02:47:02.949Z,0.00
2023-05-25T02:48:02.835Z,0.00
2023-05-25T02:49:02.720Z,0.00
2023-05-25T02:50:02.719Z,4.00
2023-05-25T02:51:02.715Z,4.00
2023-05-25T02:52:02.695Z,0.00
2023-05-25T02:53:02.675Z,0.00
2023-05-25T02:54:02.757Z,4.00
2023-05-25T02:55:02.683Z,4.00
2023-05-25T02:56:02.649Z,4.00
2023-05-25T02:57:02.631Z,4.00
2023-05-25T02:58:02.632Z,8.00
2023-05-25T02:59:02.630Z,4.00
2023-05-25T03:00:02.636Z,8.00
2023-05-25T03:01:02.631Z,8.00
2023-05-25T03:02:02.577Z,8.00
2023-05-25T03:03:02.690Z,8.00
2023-05-25T03:04:02.689Z,8.00
2023-05-25T03:05:04.288Z,12.00
2023-05-25T03:06:02.535Z,12.00
2023-05-25T03:07:02.546Z,16.00
2023-05-25T03:08:02.520Z,16.00
2023-05-25T03:09:02.524Z,24.00
2023-05-25T03:10:02.531Z,24.00
2023-05-25T03:11:02.515Z,28.00
2023-05-25T03:12:02.478Z,32.00
2023-05-25T03:13:02.460Z,36.00
2023-05-25T03:14:02.455Z,44.00
2023-05-25T03:15:02.458Z,48.00
2023-05-25T03:16:02.467Z,52.00
2023-05-25T03:17:02.460Z,60.00
2023-05-25T03:18:02.496Z,64.00
2023-05-25T03:19:02.508Z,76.00
2023-05-25T03:20:02.452Z,80.00
2023-05-25T03:21:02.409Z,92.00
2023-05-25T03:22:02.366Z,100.00
2023-05-25T03:23:02.360Z,112.00
2023-05-25T03:24:02.348Z,120.00
2023-05-25T03:25:02.337Z,136.00
2023-05-25T03:26:02.332Z,148.00
2023-05-25T03:27:02.329Z,160.00
2023-05-25T03:28:02.288Z,176.00
2023-05-25T03:29:02.285Z,192.00
2023-05-25T03:30:02.309Z,208.00
2023-05-25T03:31:02.274Z,224.00
2023-05-25T03:32:02.279Z,248.00
2023-05-25T03:33:02.266Z,264.00
2023-05-25T03:34:02.251Z,284.00
2023-05-25T03:35:02.245Z,308.00
2023-05-25T03:36:02.208Z,332.00
2023-05-25T03:37:02.194Z,356.00
2023-05-25T03:38:02.185Z,380.00
2023-05-25T03:39:02.180Z,408.00
2023-05-25T03:40:02.200Z,436.00
2023-05-25T03:41:02.176Z,464.00
2023-05-25T03:42:02.142Z,492.00
2023-05-25T03:43:02.119Z,520.00
2023-05-25T03:44:02.129Z,556.00
2023-05-25T03:45:02.119Z,588.00
2023-05-25T03:46:02.127Z,620.00
2023-05-25T03:47:02.078Z,656.00
2023-05-25T03:48:02.110Z,688.00
2023-05-25T03:49:02.064Z,728.00
2023-05-25T03:50:02.074Z,764.00
2023-05-25T03:51:02.068Z,800.00
2023-05-25T03:52:02.024Z,840.00
2023-05-25T03:53:02.035Z,872.00
2023-05-25T03:54:02.017Z,912.00
2023-05-25T03:55:01.997Z,952.00
2023-05-25T03:56:01.988Z,992.00
2023-05-25T03:57:01.980Z,1032.00
2023-05-25T03:58:01.967Z,1072.00
2023-05-25T03:59:01.956Z,1112.00
2023-05-25T04:00:01.944Z,1152.00
2023-05-25T04:01:04.979Z,1196.00
2023-05-25T04:02:01.920Z,1240.00
2023-05-25T04:03:01.990Z,1276.00
2023-05-25T04:04:01.973Z,1320.00
2023-05-25T04:05:01.894Z,1364.00
2023-05-25T04:06:01.880Z,1404.00
2023-05-25T04:07:01.943Z,1448.00
2023-05-25T04:08:01.864Z,1488.00
2023-05-25T04:09:01.850Z,1528.00
2023-05-25T04:10:01.835Z,1572.00
2023-05-25T04:11:01.829Z,1612.00
2023-05-25T04:12:01.802Z,1652.00
2023-05-25T04:13:01.798Z,1692.00
2023-05-25T04:14:01.795Z,1736.00
2023-05-25T04:15:01.797Z,1784.00
2023-05-25T04:16:01.776Z,1828.00
2023-05-25T04:17:01.748Z,1868.00
2023-05-25T04:18:01.776Z,1908.00
2023-05-25T04:19:01.735Z,1948.00
2023-05-25T04:20:01.746Z,1992.00
2023-05-25T04:21:01.738Z,2036.00
2023-05-25T04:22:01.702Z,2072.00
2023-05-25T04:23:01.718Z,2112.00
2023-05-25T04:24:01.666Z,2152.00
2023-05-25T04:25:01.661Z,2192.00
2023-05-25T04:26:01.655Z,2228.00
2023-05-25T04:27:01.669Z,2264.00
2023-05-25T04:28:01.657Z,2304.00
2023-05-25T04:29:01.612Z,2344.00
2023-05-25T04:30:01.626Z,2384.00
2023-05-25T04:31:01.595Z,2420.00
2023-05-25T04:32:01.619Z,2456.00
2023-05-25T04:33:01.628Z,2496.00
2023-05-25T04:34:01.580Z,2532.00
2023-05-25T04:35:01.569Z,2568.00
2023-05-25T04:36:01.542Z,2608.00
2023-05-25T04:37:01.527Z,2644.00
2023-05-25T04:38:01.526Z,2676.00
2023-05-25T04:39:01.540Z,2716.00
2023-05-25T04:40:01.534Z,2748.00
2023-05-25T04:41:01.489Z,2784.00
2023-05-25T04:42:01.512Z,2816.00
2023-05-25T04:43:01.468Z,2848.00
2023-05-25T04:45:01.462Z,2908.00
2023-05-25T04:46:01.520Z,2940.00
2023-05-25T04:47:01.532Z,2964.00
2023-05-25T04:48:01.547Z,3000.00
2023-05-25T04:49:01.404Z,3032.00
2023-05-25T04:50:01.399Z,3056.00
2023-05-25T04:51:01.374Z,3088.00
2023-05-25T04:52:01.388Z,3116.00
2023-05-25T04:53:01.367Z,3148.00
2023-05-25T04:54:01.362Z,3176.00
2023-05-25T04:55:01.351Z,3204.00
2023-05-25T04:56:01.320Z,3228.00
2023-05-25T04:57:01.341Z,3256.00
2023-05-25T04:58:01.296Z,3284.00
2023-05-25T04:59:01.310Z,3308.00
2023-05-25T05:00:01.312Z,3332.00
2023-05-25T05:01:01.308Z,3364.00
2023-05-25T05:02:01.278Z,3388.00
2023-05-25T05:03:01.412Z,3420.00
2023-05-25T05:04:01.343Z,3448.00
2023-05-25T05:05:01.250Z,3476.00
2023-05-25T05:06:01.214Z,3504.00
2023-05-25T05:07:01.197Z,3528.00
2023-05-25T05:08:01.206Z,3552.00
2023-05-25T05:09:01.231Z,3576.00
2023-05-25T05:10:01.281Z,3600.00
2023-05-25T05:11:01.186Z,3624.00
2023-05-25T05:12:01.182Z,3644.00
2023-05-25T05:13:01.158Z,3664.00
2023-05-25T05:14:01.147Z,3688.00
2023-05-25T05:15:01.129Z,3708.00
2023-05-25T05:16:01.105Z,3732.00
2023-05-25T05:17:01.213Z,3748.00
2023-05-25T05:18:01.175Z,3772.00
2023-05-25T05:19:01.096Z,3792.00
2023-05-25T05:20:01.124Z,3808.00
2023-05-25T05:21:01.064Z,3828.00
2023-05-25T05:22:01.061Z,3848.00
2023-05-25T05:23:01.046Z,3864.00
2023-05-25T05:24:01.072Z,3880.00
2023-05-25T05:25:01.025Z,3896.00
2023-05-25T05:26:01.002Z,3916.00
2023-05-25T05:27:02.649Z,3936.00
2023-05-25T05:28:01.067Z,3956.00
2023-05-25T05:29:00.966Z,3968.00
2023-05-25T05:30:00.967Z,3988.00
2023-05-25T05:31:08.787Z,4004.00
2023-05-25T05:32:00.957Z,4024.00
2023-05-25T05:33:01.043Z,4044.00
2023-05-25T05:34:01.005Z,4060.00
2023-05-25T05:35:00.940Z,4084.00
2023-05-25T05:36:00.893Z,4092.00
2023-05-25T05:37:00.908Z,4108.00
2023-05-25T05:38:00.891Z,4124.00
2023-05-25T05:39:00.856Z,4140.00
2023-05-25T05:40:00.869Z,4152.00
2023-05-25T05:41:00.861Z,4168.00
2023-05-25T05:42:00.854Z,4180.00
2023-05-25T05:43:00.894Z,4196.00
2023-05-25T05:44:00.844Z,4208.00
2023-05-25T05:45:00.804Z,4224.00
2023-05-25T05:46:00.841Z,4244.00
2023-05-25T05:47:01.761Z,4260.00
2023-05-25T05:48:00.828Z,4276.00
2023-05-25T05:49:00.856Z,4284.00
2023-05-25T05:50:00.740Z,4300.00
2023-05-25T05:51:00.789Z,4308.00
2023-05-25T05:52:00.742Z,4324.00
2023-05-25T05:53:00.721Z,4336.00
2023-05-25T05:54:00.741Z,4352.00
2023-05-25T05:55:00.707Z,4364.00
2023-05-25T05:56:00.676Z,4372.00
2023-05-25T05:57:00.689Z,4376.00
2023-05-25T05:58:00.687Z,4384.00
2023-05-25T05:59:00.775Z,4396.00
2023-05-25T06:00:01.306Z,4408.00
2023-05-25T06:01:00.643Z,4428.00
2023-05-25T06:02:00.672Z,4444.00
2023-05-25T06:03:01.219Z,4452.00
2023-05-25T06:04:00.593Z,4456.00
2023-05-25T06:05:00.662Z,4468.00
2023-05-25T06:06:00.723Z,4472.00
2023-05-25T06:07:00.553Z,4484.00
2023-05-25T06:08:00.628Z,4488.00
2023-05-25T06:09:00.555Z,4500.00
2023-05-25T06:10:00.520Z,4508.00
2023-05-25T06:11:00.545Z,4520.00
2023-05-25T06:12:00.544Z,4532.00
2023-05-25T06:13:00.505Z,4544.00
2023-05-25T06:14:00.465Z,4560.00
2023-05-25T06:15:00.548Z,4572.00
2023-05-25T06:16:00.636Z,4580.00
2023-05-25T06:17:00.736Z,4596.00
2023-05-25T06:18:00.540Z,4596.00
2023-05-25T06:19:00.559Z,4608.00
2023-05-25T06:20:00.573Z,4616.00
2023-05-25T06:21:00.408Z,4624.00
2023-05-25T06:22:00.745Z,4632.00
2023-05-25T06:23:00.467Z,4644.00
2023-05-25T06:24:00.497Z,4652.00
2023-05-25T06:25:00.674Z,4664.00
2023-05-25T06:26:00.349Z,4676.00
2023-05-25T06:27:00.608Z,4684.00
2023-05-25T06:28:00.366Z,4692.00
2023-05-25T06:29:00.483Z,4700.00
2023-05-25T06:30:00.335Z,4704.00
2023-05-25T06:31:00.350Z,4708.00
2023-05-25T06:32:00.383Z,4720.00
2023-05-25T06:33:00.326Z,4724.00
2023-05-25T06:34:00.287Z,4732.00
2023-05-25T06:35:00.698Z,4736.00
2023-05-25T06:36:00.321Z,4744.00
2023-05-25T06:37:00.228Z,4752.00
2023-05-25T06:38:00.214Z,4756.00
2023-05-25T06:39:00.213Z,4764.00
2023-05-25T06:40:00.190Z,4772.00
2023-05-25T06:41:00.180Z,4780.00
2023-05-25T06:42:00.177Z,4784.00
2023-05-25T06:43:00.191Z,4796.00
2023-05-25T06:44:00.225Z,4800.00
2023-05-25T06:45:00.133Z,4808.00
2023-05-25T06:46:00.761Z,4812.00
2023-05-25T06:47:00.144Z,4816.00
2023-05-25T06:48:00.209Z,4820.00
2023-05-25T06:49:00.163Z,4828.00
2023-05-25T06:50:00.216Z,4832.00
2023-05-25T06:51:00.075Z,4840.00
2023-05-25T06:52:00.099Z,4844.00
2023-05-25T06:53:00.523Z,4852.00
2023-05-25T06:54:00.044Z,4860.00
2023-05-25T06:55:00.171Z,4864.00
2023-05-25T06:56:00.064Z,4868.00
2023-05-25T06:57:00.014Z,4880.00
2023-05-25T06:58:00.017Z,4884.00
2023-05-25T06:59:00.004Z,4892.00
2023-05-25T07:00:00.674Z,4904.00
2023-05-25T07:01:00.026Z,4912.00
2023-05-25T07:02:00.026Z,4916.00
2023-05-25T07:03:00.327Z,4920.00
2023-05-25T07:03:59.950Z,4920.00
2023-05-25T07:05:00.003Z,4920.00
2023-05-25T07:05:59.988Z,4928.00
2023-05-25T07:06:59.885Z,4928.00
2023-05-25T07:07:59.959Z,4932.00
2023-05-25T07:08:59.883Z,4940.00
2023-05-25T07:09:59.891Z,4940.00
2023-05-25T07:10:59.846Z,4948.00
2023-05-25T07:11:59.881Z,4952.00
2023-05-25T07:12:59.840Z,4956.00
2023-05-25T07:13:59.864Z,4960.00
2023-05-25T07:14:59.797Z,4968.00
2023-05-25T07:16:00.335Z,4972.00
2023-05-25T07:16:59.840Z,4976.00
2023-05-25T07:17:59.860Z,4984.00
2023-05-25T07:19:00.305Z,4988.00
2023-05-25T07:19:59.763Z,4992.00
2023-05-25T07:20:59.750Z,5000.00
2023-05-25T07:21:59.761Z,5008.00
2023-05-25T07:22:59.776Z,5012.00
2023-05-25T07:23:59.788Z,5020.00
2023-05-25T07:24:59.726Z,5028.00
2023-05-25T07:25:59.679Z,5032.00
2023-05-25T07:26:59.721Z,5036.00
2023-05-25T07:27:59.702Z,5040.00
2023-05-25T07:28:59.649Z,5044.00
2023-05-25T07:29:59.641Z,5052.00
2023-05-25T07:30:59.656Z,5056.00
2023-05-25T07:31:59.697Z,5064.00
2023-05-25T07:32:59.634Z,5064.00
2023-05-25T07:33:59.576Z,5068.00
2023-05-25T07:34:59.591Z,5072.00
2023-05-25T07:35:59.659Z,5080.00
2023-05-25T07:36:59.673Z,5088.00
2023-05-25T07:37:59.589Z,5092.00
2023-05-25T07:38:59.549Z,5096.00
2023-05-25T07:39:59.556Z,5100.00
2023-05-25T07:40:59.551Z,5104.00
2023-05-25T07:41:59.597Z,5112.00
2023-05-25T07:42:59.527Z,5120.00
2023-05-25T07:43:59.574Z,5124.00
2023-05-25T07:44:59.498Z,5132.00
2023-05-25T07:45:59.462Z,5136.00
2023-05-25T07:46:59.478Z,5140.00
2023-05-25T07:47:59.482Z,5144.00
2023-05-25T07:48:59.424Z,5148.00
2023-05-25T07:49:59.412Z,5160.00
2023-05-25T07:50:59.436Z,5160.00
2023-05-25T07:51:59.477Z,5168.00
2023-05-25T07:52:59.389Z,5172.00
2023-05-25T07:53:59.393Z,5180.00
2023-05-25T07:54:59.512Z,5188.00
2023-05-25T07:55:59.406Z,5192.00
2023-05-25T07:56:59.342Z,5196.00
2023-05-25T07:57:59.348Z,5200.00
2023-05-25T07:58:59.373Z,5208.00
2023-05-25T07:59:59.309Z,5216.00
2023-05-25T08:00:59.293Z,5224.00
2023-05-25T08:01:59.331Z,5228.00
2023-05-25T08:02:59.481Z,5232.00
2023-05-25T08:03:59.379Z,5232.00
2023-05-25T08:04:59.340Z,5236.00
2023-05-25T08:05:59.258Z,5244.00
2023-05-25T08:06:59.261Z,5252.00
2023-05-25T08:07:59.211Z,5260.00
2023-05-25T08:08:59.261Z,5272.00
2023-05-25T08:09:59.193Z,5280.00
2023-05-25T08:10:59.215Z,5288.00
2023-05-25T08:12:21.286Z,5288.00
2023-05-25T08:13:00.140Z,5292.00
2023-05-25T08:13:59.177Z,5300.00
2023-05-25T08:14:59.200Z,5304.00
2023-05-25T08:15:59.206Z,5308.00
2023-05-25T08:16:59.120Z,5308.00
2023-05-25T08:17:59.136Z,5312.00
2023-05-25T08:18:59.118Z,5312.00
2023-05-25T08:19:59.104Z,5320.00
2023-05-25T08:20:59.061Z,5328.00
2023-05-25T08:21:59.053Z,5340.00
2023-05-25T08:22:59.077Z,5352.00
2023-05-25T08:23:59.049Z,5360.00
2023-05-25T08:24:59.661Z,5360.00
2023-05-25T08:25:59.005Z,5368.00
2023-05-25T08:26:58.981Z,5372.00
2023-05-25T08:28:00.685Z,5380.00
2023-05-25T08:28:59.089Z,5392.00
2023-05-25T08:29:59.088Z,5396.00
2023-05-25T08:30:58.956Z,5412.00
2023-05-25T08:31:58.931Z,5428.00
2023-05-25T08:32:59.020Z,5432.00
2023-05-25T08:33:58.944Z,5440.00
2023-05-25T08:34:58.918Z,5444.00
2023-05-25T08:35:58.879Z,5452.00
2023-05-25T08:36:58.938Z,5464.00
2023-05-25T08:37:58.946Z,5472.00
2023-05-25T08:38:58.928Z,5484.00
2023-05-25T08:39:58.934Z,5476.00
2023-05-25T08:40:58.831Z,5476.00
2023-05-25T08:41:58.818Z,5504.00
2023-05-25T08:42:58.846Z,5516.00
2023-05-25T08:43:58.816Z,5528.00
2023-05-25T08:44:58.863Z,5548.00
2023-05-25T08:45:58.768Z,5564.00
2023-05-25T08:46:58.774Z,5580.00
2023-05-25T08:47:58.897Z,5592.00
2023-05-25T08:48:58.822Z,5620.00
2023-05-25T08:49:58.733Z,5628.00
2023-05-25T08:50:58.718Z,5632.00
2023-05-25T08:51:58.770Z,5648.00
2023-05-25T08:52:59.674Z,5676.00
2023-05-25T08:53:58.885Z,5704.00
2023-05-25T08:54:58.716Z,5704.00
2023-05-25T08:55:58.649Z,5720.00
2023-05-25T08:56:58.677Z,5720.00
2023-05-25T08:57:58.652Z,5736.00
2023-05-25T08:58:58.633Z,5784.00
2023-05-25T08:59:58.616Z,5772.00
2023-05-25T09:00:58.667Z,5816.00
2023-05-25T09:01:58.652Z,5836.00
2023-05-25T09:02:58.671Z,5864.00
2023-05-25T09:03:58.663Z,5892.00
2023-05-25T09:04:58.562Z,5896.00
2023-05-25T09:05:58.593Z,5892.00
2023-05-25T09:07:09.710Z,5920.00
2023-05-25T09:07:59.559Z,5944.00
2023-05-25T09:08:58.520Z,5960.00
2023-05-25T09:09:58.519Z,6012.00
2023-05-25T09:10:58.693Z,6092.00
2023-05-25T09:11:58.490Z,6152.00
2023-05-25T09:12:58.480Z,6188.00
2023-05-25T09:13:58.530Z,6180.00
2023-05-25T09:14:58.448Z,6180.00
2023-05-25T09:16:00.660Z,6248.00
2023-05-25T09:16:58.501Z,6268.00
2023-05-25T09:17:58.428Z,6284.00
2023-05-25T09:18:58.424Z,6308.00
2023-05-25T09:19:58.468Z,6428.00
2023-05-25T09:20:58.487Z,6576.00
2023-05-25T09:22:13.450Z,6712.00
2023-05-25T09:22:59.371Z,6800.00
2023-05-25T09:23:58.364Z,7004.00
2023-05-25T09:24:58.345Z,7188.00
2023-05-25T09:25:58.356Z,7308.00
2023-05-25T09:26:58.360Z,7428.00
2023-05-25T09:27:58.348Z,7508.00
2023-05-25T09:28:58.344Z,7616.00
2023-05-25T09:29:58.279Z,7756.00
2023-05-25T09:30:58.325Z,7872.00
2023-05-25T09:31:58.358Z,7940.00
2023-05-25T09:32:58.418Z,8000.00
2023-05-25T09:33:58.260Z,8096.00
2023-05-25T09:34:58.273Z,8100.00
2023-05-25T09:35:58.242Z,8256.00
2023-05-25T09:36:58.344Z,8568.00
2023-05-25T09:37:59.537Z,9120.00
2023-05-25T09:38:58.450Z,9864.00
2023-05-25T09:39:58.163Z,10796.00
2023-05-25T09:40:58.211Z,11672.00
2023-05-25T09:41:58.183Z,11760.00
2023-05-25T09:42:58.221Z,12312.00
2023-05-25T09:44:10.631Z,12456.00
2023-05-25T09:44:59.140Z,12248.00
2023-05-25T09:45:58.153Z,11636.00
2023-05-25T09:46:58.113Z,10540.00
2023-05-25T09:47:58.156Z,10276.00
2023-05-25T09:48:58.071Z,10632.00
2023-05-25T09:49:58.089Z,11088.00
2023-05-25T09:50:58.079Z,11396.00
2023-05-25T09:51:58.053Z,11876.00
2023-05-25T09:52:58.070Z,11936.00
2023-05-25T09:53:58.174Z,11608.00
2023-05-25T09:54:58.037Z,12188.00
2023-05-25T09:55:58.217Z,11672.00
2023-05-25T09:56:58.078Z,10332.00
2023-05-25T09:57:57.982Z,9856.00
2023-05-25T09:58:58.004Z,9576.00
2023-05-25T09:59:58.021Z,9296.00
2023-05-25T10:00:57.973Z,9088.00
2023-05-25T10:01:57.987Z,9148.00
2023-05-25T10:02:57.991Z,9308.00
2023-05-25T10:04:04.243Z,9020.00
2023-05-25T10:04:59.024Z,9076.00
2023-05-25T10:05:57.900Z,8908.00
2023-05-25T10:06:57.917Z,8736.00
2023-05-25T10:07:57.874Z,8652.00
2023-05-25T10:08:57.890Z,9112.00
2023-05-25T10:09:57.865Z,9004.00
2023-05-25T10:10:57.951Z,8536.00
2023-05-25T10:11:57.843Z,8504.00
2023-05-25T10:12:57.887Z,8664.00
2023-05-25T10:13:57.825Z,9328.00
2023-05-25T10:14:57.871Z,9320.00
2023-05-25T10:15:57.880Z,9324.00
2023-05-25T10:16:57.838Z,9464.00
2023-05-25T10:17:57.890Z,9444.00
2023-05-25T10:18:57.766Z,9820.00
2023-05-25T10:19:57.864Z,10160.00
2023-05-25T10:20:58.107Z,10744.00
2023-05-25T10:21:57.706Z,11384.00
2023-05-25T10:22:57.712Z,11880.00
2023-05-25T10:23:57.718Z,12152.00
2023-05-25T10:24:57.690Z,12308.00
2023-05-25T10:25:57.683Z,12740.00
2023-05-25T10:26:57.827Z,13372.00
2023-05-25T10:27:59.503Z,14096.00
2023-05-25T10:28:57.649Z,14612.00
2023-05-25T10:29:57.611Z,15040.00
2023-05-25T10:30:57.630Z,15336.00
2023-05-25T10:31:57.681Z,15272.00
2023-05-25T10:32:57.746Z,14820.00
2023-05-25T10:33:57.597Z,14284.00
2023-05-25T10:34:57.698Z,12424.00
2023-05-25T10:36:57.551Z,10976.00
2023-05-25T10:37:57.566Z,10328.00
2023-05-25T10:38:57.562Z,9808.00
2023-05-25T10:39:57.530Z,9504.00
2023-05-25T10:40:57.718Z,9556.00
2023-05-25T10:41:57.524Z,10512.00
2023-05-25T10:42:57.506Z,9312.00
2023-05-25T10:43:57.497Z,9828.00
2023-05-25T10:44:57.469Z,9724.00
2023-05-25T10:45:57.558Z,9704.00
2023-05-25T10:46:57.584Z,9644.00
2023-05-25T10:47:57.608Z,9584.00
2023-05-25T10:48:57.505Z,10096.00
2023-05-25T10:49:57.437Z,10404.00
2023-05-25T10:50:57.380Z,10688.00
2023-05-25T10:51:57.364Z,11044.00
2023-05-25T10:52:57.393Z,11484.00
2023-05-25T10:53:57.381Z,11860.00
2023-05-25T10:54:57.425Z,12356.00
2023-05-25T10:55:57.393Z,12764.00
2023-05-25T10:56:57.360Z,13004.00
2023-05-25T10:57:57.330Z,12596.00
2023-05-25T10:58:57.309Z,12248.00
2023-05-25T10:59:57.293Z,11992.00
2023-05-25T11:00:57.353Z,11928.00
2023-05-25T11:01:57.398Z,12000.00
2023-05-25T11:02:57.346Z,11976.00
2023-05-25T11:03:57.279Z,10900.00
2023-05-25T11:04:57.238Z,9184.00
2023-05-25T11:05:57.273Z,8940.00
2023-05-25T11:06:57.249Z,9736.00
2023-05-25T11:07:57.246Z,10920.00
2023-05-25T11:08:57.195Z,10828.00
2023-05-25T11:09:57.194Z,10648.00
2023-05-25T11:10:57.209Z,10704.00
2023-05-25T11:11:57.171Z,10652.00
2023-05-25T11:12:57.176Z,10624.00
2023-05-25T11:13:57.135Z,10616.00
2023-05-25T11:14:57.695Z,9016.00
2023-05-25T11:15:57.183Z,8788.00
2023-05-25T11:16:57.167Z,9812.00
2023-05-25T11:17:57.173Z,9016.00
2023-05-25T11:18:57.101Z,11124.00
2023-05-25T11:19:57.121Z,11236.00
2023-05-25T11:20:57.082Z,12108.00
2023-05-25T11:21:57.060Z,12392.00
2023-05-25T11:22:57.091Z,12528.00
2023-05-25T11:23:57.108Z,12504.00
2023-05-25T11:24:57.019Z,12772.00
2023-05-25T11:25:57.013Z,13204.00
2023-05-25T11:26:57.043Z,13844.00
2023-05-25T11:27:56.991Z,14824.00
2023-05-25T11:28:56.973Z,15828.00
2023-05-25T11:29:56.962Z,16424.00
2023-05-25T11:30:56.987Z,17088.00
2023-05-25T11:31:56.954Z,16832.00
2023-05-25T11:32:57.026Z,16256.00
2023-05-25T11:33:56.961Z,14088.00
2023-05-25T11:34:56.927Z,15944.00
2023-05-25T11:35:56.917Z,13008.00
2023-05-25T11:36:57.204Z,13004.00
2023-05-25T11:37:56.895Z,13108.00
2023-05-25T11:39:57.852Z,12844.00
2023-05-25T11:40:56.873Z,13228.00
2023-05-25T11:41:56.852Z,13632.00
2023-05-25T11:42:57.039Z,13168.00
2023-05-25T11:43:56.824Z,13136.00
2023-05-25T11:44:56.805Z,12768.00
2023-05-25T11:45:56.891Z,12236.00
2023-05-25T11:46:56.944Z,11760.00
2023-05-25T11:47:56.787Z,11540.00
2023-05-25T11:48:56.770Z,11480.00
2023-05-25T11:49:56.819Z,12020.00
2023-05-25T11:50:56.765Z,16288.00
2023-05-25T11:51:56.717Z,16120.00
2023-05-25T11:52:56.739Z,18240.00
2023-05-25T11:53:56.742Z,18560.00
2023-05-25T11:54:56.826Z,18304.00
2023-05-25T11:56:03.779Z,17440.00
2023-05-25T11:56:57.673Z,14628.00
2023-05-25T11:57:56.639Z,13440.00
2023-05-25T11:58:56.680Z,12988.00
2023-05-25T11:59:56.665Z,12616.00
2023-05-25T12:00:56.632Z,11660.00
2023-05-25T12:01:56.597Z,11108.00
2023-05-25T12:02:56.777Z,10976.00
2023-05-25T12:03:57.146Z,10020.00
2023-05-25T12:04:56.649Z,9984.00
2023-05-25T12:05:56.620Z,10288.00
2023-05-25T12:06:56.612Z,14872.00
2023-05-25T12:07:56.560Z,15100.00
2023-05-25T12:08:56.523Z,15164.00
2023-05-25T12:09:56.524Z,15480.00
2023-05-25T12:10:56.529Z,15792.00
2023-05-25T12:11:56.496Z,16128.00
2023-05-25T12:12:56.496Z,16764.00
2023-05-25T12:13:56.505Z,17696.00
2023-05-25T12:14:57.195Z,18176.00
2023-05-25T12:15:56.493Z,18528.00
2023-05-25T12:16:56.498Z,18944.00
2023-05-25T12:17:56.444Z,19232.00
2023-05-25T12:18:56.431Z,19776.00
2023-05-25T12:19:56.482Z,20064.00
2023-05-25T12:20:56.563Z,20448.00
2023-05-25T12:21:56.412Z,20224.00
2023-05-25T12:22:56.414Z,18080.00